sensor_id;sensor_type;location;lat;lon;timestamp;temperature;humidity
26186;DHT22;20067;48.764;9.176;2023-07-29T00:00:41;18.90;91.30
26186;DHT22;20067;48.764;9.176;2023-07-29T00:03:06;19.00;91.30
26186;DHT22;20067;48.764;9.176;2023-07-29T00:05:32;19.00;91.30
26186;DHT22;20067;48.764;9.176;2023-07-29T00:07:58;18.70;91.30
26186;DHT22;20067;48.764;9.176;2023-07-29T00:10:23;18.60;91.30
26186;DHT22;20067;48.764;9.176;2023-07-29T00:12:49;18.60;91.30
26186;DHT22;20067;48.764;9.176;2023-07-29T00:15:14;18.70;91.30
26186;DHT22;20067;48.764;9.176;2023-07-29T00:17:40;18.90;91.30
26186;DHT22;20067;48.764;9.176;2023-07-29T00:20:06;19.20;91.30
26186;DHT22;20067;48.764;9.176;2023-07-29T00:22:32;19.20;91.30
26186;DHT22;20067;48.764;9.176;2023-07-29T00:24:58;19.20;91.30
26186;DHT22;20067;48.764;9.176;2023-07-29T00:27:25;19.00;91.30
26186;DHT22;20067;48.764;9.176;2023-07-29T00:29:51;18.80;91.30
26186;DHT22;20067;48.764;9.176;2023-07-29T00:32:16;18.70;91.30
26186;DHT22;20067;48.764;9.176;2023-07-29T00:34:42;18.80;91.30
26186;DHT22;20067;48.764;9.176;2023-07-29T00:37:08;19.00;91.30
26186;DHT22;20067;48.764;9.176;2023-07-29T00:39:33;19.00;91.30
26186;DHT22;20067;48.764;9.176;2023-07-29T00:41:59;19.00;91.30
26186;DHT22;20067;48.764;9.176;2023-07-29T00:44:25;19.10;91.30
26186;DHT22;20067;48.764;9.176;2023-07-29T00:46:53;19.10;91.30
26186;DHT22;20067;48.764;9.176;2023-07-29T00:49:20;19.20;91.30
26186;DHT22;20067;48.764;9.176;2023-07-29T00:51:46;19.10;91.30
26186;DHT22;20067;48.764;9.176;2023-07-29T00:54:12;19.10;91.30
26186;DHT22;20067;48.764;9.176;2023-07-29T00:56:38;19.00;91.30
26186;DHT22;20067;48.764;9.176;2023-07-29T00:59:04;18.80;91.30
26186;DHT22;20067;48.764;9.176;2023-07-29T01:01:30;18.70;91.30
26186;DHT22;20067;48.764;9.176;2023-07-29T01:03:57;18.70;91.30
26186;DHT22;20067;48.764;9.176;2023-07-29T01:14:46;18.50;91.30
26186;DHT22;20067;48.764;9.176;2023-07-29T01:17:23;18.40;91.30
26186;DHT22;20067;48.764;9.176;2023-07-29T01:22:20;18.60;91.30
26186;DHT22;20067;48.764;9.176;2023-07-29T01:24:46;18.70;91.30
26186;DHT22;20067;48.764;9.176;2023-07-29T01:27:12;18.60;91.30
26186;DHT22;20067;48.764;9.176;2023-07-29T01:29:38;18.70;91.30
26186;DHT22;20067;48.764;9.176;2023-07-29T01:34:56;18.50;91.30
26186;DHT22;20067;48.764;9.176;2023-07-29T01:37:26;18.30;91.30
26186;DHT22;20067;48.764;9.176;2023-07-29T01:39:55;18.20;91.30
26186;DHT22;20067;48.764;9.176;2023-07-29T01:42:22;18.30;91.30
26186;DHT22;20067;48.764;9.176;2023-07-29T01:44:48;18.60;91.30
26186;DHT22;20067;48.764;9.176;2023-07-29T01:47:14;18.80;91.30
26186;DHT22;20067;48.764;9.176;2023-07-29T01:49:39;18.90;91.30
26186;DHT22;20067;48.764;9.176;2023-07-29T01:52:05;19.00;91.30
26186;DHT22;20067;48.764;9.176;2023-07-29T01:54:31;19.10;91.30
26186;DHT22;20067;48.764;9.176;2023-07-29T01:56:56;19.20;91.30
26186;DHT22;20067;48.764;9.176;2023-07-29T01:59:22;19.00;91.30
26186;DHT22;20067;48.764;9.176;2023-07-29T02:01:48;19.10;91.30
26186;DHT22;20067;48.764;9.176;2023-07-29T02:04:14;19.20;91.30
26186;DHT22;20067;48.764;9.176;2023-07-29T02:06:39;19.10;91.30
26186;DHT22;20067;48.764;9.176;2023-07-29T02:09:05;19.10;91.30
26186;DHT22;20067;48.764;9.176;2023-07-29T02:11:31;19.10;91.30
26186;DHT22;20067;48.764;9.176;2023-07-29T02:13:57;19.20;91.30
26186;DHT22;20067;48.764;9.176;2023-07-29T02:16:23;19.00;91.30
26186;DHT22;20067;48.764;9.176;2023-07-29T02:18:49;19.00;91.30
26186;DHT22;20067;48.764;9.176;2023-07-29T02:21:15;19.00;91.30
26186;DHT22;20067;48.764;9.176;2023-07-29T02:23:41;18.80;91.30
26186;DHT22;20067;48.764;9.176;2023-07-29T02:26:07;18.80;91.30
26186;DHT22;20067;48.764;9.176;2023-07-29T02:28:32;18.70;91.30
26186;DHT22;20067;48.764;9.176;2023-07-29T02:33:45;18.60;91.30
26186;DHT22;20067;48.764;9.176;2023-07-29T02:36:12;18.80;91.30
26186;DHT22;20067;48.764;9.176;2023-07-29T02:38:39;18.90;91.30
26186;DHT22;20067;48.764;9.176;2023-07-29T02:41:04;19.10;91.30
26186;DHT22;20067;48.764;9.176;2023-07-29T02:43:30;19.00;91.30
26186;DHT22;20067;48.764;9.176;2023-07-29T02:45:56;19.10;91.30
26186;DHT22;20067;48.764;9.176;2023-07-29T02:48:21;19.00;91.30
26186;DHT22;20067;48.764;9.176;2023-07-29T02:50:47;19.00;91.30
26186;DHT22;20067;48.764;9.176;2023-07-29T02:53:12;19.00;91.30
26186;DHT22;20067;48.764;9.176;2023-07-29T02:55:41;18.90;91.30
26186;DHT22;20067;48.764;9.176;2023-07-29T02:58:07;18.80;91.30
26186;DHT22;20067;48.764;9.176;2023-07-29T03:00:33;18.90;91.30
26186;DHT22;20067;48.764;9.176;2023-07-29T03:02:59;18.90;91.30
26186;DHT22;20067;48.764;9.176;2023-07-29T03:05:29;19.20;91.30
26186;DHT22;20067;48.764;9.176;2023-07-29T03:07:55;19.30;91.30
26186;DHT22;20067;48.764;9.176;2023-07-29T03:10:20;19.20;91.30
26186;DHT22;20067;48.764;9.176;2023-07-29T03:12:47;19.30;91.30
26186;DHT22;20067;48.764;9.176;2023-07-29T03:15:13;19.20;91.30
26186;DHT22;20067;48.764;9.176;2023-07-29T03:17:38;19.10;91.30
26186;DHT22;20067;48.764;9.176;2023-07-29T03:20:04;19.20;91.30
26186;DHT22;20067;48.764;9.176;2023-07-29T03:22:30;19.30;91.30
26186;DHT22;20067;48.764;9.176;2023-07-29T03:24:56;19.20;91.30
26186;DHT22;20067;48.764;9.176;2023-07-29T03:27:21;19.30;91.30
26186;DHT22;20067;48.764;9.176;2023-07-29T03:29:47;19.30;91.30
26186;DHT22;20067;48.764;9.176;2023-07-29T03:32:13;19.30;91.30
26186;DHT22;20067;48.764;9.176;2023-07-29T03:34:38;19.30;91.30
26186;DHT22;20067;48.764;9.176;2023-07-29T03:37:05;19.30;91.30
26186;DHT22;20067;48.764;9.176;2023-07-29T03:39:31;19.40;91.30
26186;DHT22;20067;48.764;9.176;2023-07-29T03:41:57;19.40;91.30
26186;DHT22;20067;48.764;9.176;2023-07-29T03:44:23;19.30;91.30
26186;DHT22;20067;48.764;9.176;2023-07-29T03:46:49;19.40;91.30
26186;DHT22;20067;48.764;9.176;2023-07-29T03:49:14;19.40;91.30
26186;DHT22;20067;48.764;9.176;2023-07-29T03:51:40;19.50;91.30
26186;DHT22;20067;48.764;9.176;2023-07-29T03:54:06;19.50;91.30
26186;DHT22;20067;48.764;9.176;2023-07-29T03:56:31;19.40;91.30
26186;DHT22;20067;48.764;9.176;2023-07-29T03:59:04;19.50;91.30
26186;DHT22;20067;48.764;9.176;2023-07-29T04:01:30;19.60;91.30
26186;DHT22;20067;48.764;9.176;2023-07-29T04:03:56;19.70;91.30
26186;DHT22;20067;48.764;9.176;2023-07-29T04:06:22;19.70;91.30
26186;DHT22;20067;48.764;9.176;2023-07-29T04:08:48;19.40;91.30
26186;DHT22;20067;48.764;9.176;2023-07-29T04:11:14;19.30;91.30
26186;DHT22;20067;48.764;9.176;2023-07-29T04:13:40;19.40;91.30
26186;DHT22;20067;48.764;9.176;2023-07-29T04:16:06;19.60;91.30
26186;DHT22;20067;48.764;9.176;2023-07-29T04:18:32;19.40;91.30
26186;DHT22;20067;48.764;9.176;2023-07-29T04:20:57;19.20;91.30
26186;DHT22;20067;48.764;9.176;2023-07-29T04:23:23;19.00;91.30
26186;DHT22;20067;48.764;9.176;2023-07-29T04:25:49;18.90;91.30
26186;DHT22;20067;48.764;9.176;2023-07-29T04:28:15;18.90;91.30
26186;DHT22;20067;48.764;9.176;2023-07-29T04:30:41;19.00;91.30
26186;DHT22;20067;48.764;9.176;2023-07-29T04:33:07;19.10;91.30
26186;DHT22;20067;48.764;9.176;2023-07-29T04:35:32;19.00;91.30
26186;DHT22;20067;48.764;9.176;2023-07-29T04:37:58;19.00;91.30
26186;DHT22;20067;48.764;9.176;2023-07-29T04:40:23;18.90;91.30
26186;DHT22;20067;48.764;9.176;2023-07-29T04:42:50;18.90;91.30
26186;DHT22;20067;48.764;9.176;2023-07-29T04:45:16;18.90;91.30
26186;DHT22;20067;48.764;9.176;2023-07-29T04:47:41;18.80;91.30
26186;DHT22;20067;48.764;9.176;2023-07-29T04:50:07;18.80;91.30
26186;DHT22;20067;48.764;9.176;2023-07-29T04:52:33;18.80;91.30
26186;DHT22;20067;48.764;9.176;2023-07-29T04:54:59;18.80;91.30
26186;DHT22;20067;48.764;9.176;2023-07-29T04:57:24;18.50;91.30
26186;DHT22;20067;48.764;9.176;2023-07-29T04:59:50;18.40;91.30
26186;DHT22;20067;48.764;9.176;2023-07-29T05:02:16;18.70;91.30
26186;DHT22;20067;48.764;9.176;2023-07-29T05:04:41;18.70;91.30
26186;DHT22;20067;48.764;9.176;2023-07-29T05:07:07;18.70;91.30
26186;DHT22;20067;48.764;9.176;2023-07-29T05:09:32;18.70;91.30
26186;DHT22;20067;48.764;9.176;2023-07-29T05:11:58;18.70;91.30
26186;DHT22;20067;48.764;9.176;2023-07-29T05:14:24;18.60;91.30
26186;DHT22;20067;48.764;9.176;2023-07-29T05:16:49;18.60;91.30
26186;DHT22;20067;48.764;9.176;2023-07-29T05:19:15;18.60;91.30
26186;DHT22;20067;48.764;9.176;2023-07-29T05:21:41;18.70;91.30
26186;DHT22;20067;48.764;9.176;2023-07-29T05:24:06;18.70;91.30
26186;DHT22;20067;48.764;9.176;2023-07-29T05:26:32;18.80;91.30
26186;DHT22;20067;48.764;9.176;2023-07-29T05:28:58;18.80;91.30
26186;DHT22;20067;48.764;9.176;2023-07-29T05:31:23;18.80;91.30
26186;DHT22;20067;48.764;9.176;2023-07-29T05:33:49;18.90;91.30
26186;DHT22;20067;48.764;9.176;2023-07-29T05:36:15;18.90;91.30
26186;DHT22;20067;48.764;9.176;2023-07-29T05:38:41;18.90;91.30
26186;DHT22;20067;48.764;9.176;2023-07-29T05:41:07;18.90;91.30
26186;DHT22;20067;48.764;9.176;2023-07-29T05:43:33;19.10;91.30
26186;DHT22;20067;48.764;9.176;2023-07-29T05:45:59;19.00;91.30
26186;DHT22;20067;48.764;9.176;2023-07-29T05:48:24;19.10;91.30
26186;DHT22;20067;48.764;9.176;2023-07-29T05:50:50;19.10;91.30
26186;DHT22;20067;48.764;9.176;2023-07-29T05:53:16;19.20;91.30
26186;DHT22;20067;48.764;9.176;2023-07-29T05:55:42;19.30;91.30
26186;DHT22;20067;48.764;9.176;2023-07-29T05:58:07;19.30;91.30
26186;DHT22;20067;48.764;9.176;2023-07-29T06:00:33;19.30;91.30
26186;DHT22;20067;48.764;9.176;2023-07-29T06:02:59;19.30;91.30
26186;DHT22;20067;48.764;9.176;2023-07-29T06:05:27;19.50;91.30
26186;DHT22;20067;48.764;9.176;2023-07-29T06:07:53;19.60;91.30
26186;DHT22;20067;48.764;9.176;2023-07-29T06:10:19;19.70;91.30
26186;DHT22;20067;48.764;9.176;2023-07-29T06:12:47;19.70;91.30
26186;DHT22;20067;48.764;9.176;2023-07-29T06:15:13;19.60;91.30
26186;DHT22;20067;48.764;9.176;2023-07-29T06:17:40;19.60;91.30
26186;DHT22;20067;48.764;9.176;2023-07-29T06:20:06;19.90;91.30
26186;DHT22;20067;48.764;9.176;2023-07-29T06:22:32;20.10;91.30
26186;DHT22;20067;48.764;9.176;2023-07-29T06:24:58;20.20;91.30
26186;DHT22;20067;48.764;9.176;2023-07-29T06:27:24;20.30;91.30
26186;DHT22;20067;48.764;9.176;2023-07-29T06:29:50;20.40;91.30
26186;DHT22;20067;48.764;9.176;2023-07-29T06:32:16;20.40;91.30
26186;DHT22;20067;48.764;9.176;2023-07-29T06:34:41;20.40;91.30
26186;DHT22;20067;48.764;9.176;2023-07-29T06:37:07;20.50;91.30
26186;DHT22;20067;48.764;9.176;2023-07-29T06:39:33;20.70;91.30
26186;DHT22;20067;48.764;9.176;2023-07-29T06:41:58;20.70;91.30
26186;DHT22;20067;48.764;9.176;2023-07-29T06:44:24;20.80;91.30
26186;DHT22;20067;48.764;9.176;2023-07-29T06:46:50;20.80;91.30
26186;DHT22;20067;48.764;9.176;2023-07-29T06:49:15;20.80;91.30
26186;DHT22;20067;48.764;9.176;2023-07-29T06:51:41;20.80;91.30
26186;DHT22;20067;48.764;9.176;2023-07-29T06:54:06;20.70;91.30
26186;DHT22;20067;48.764;9.176;2023-07-29T06:56:32;20.70;91.30
26186;DHT22;20067;48.764;9.176;2023-07-29T06:58:58;20.70;91.30
26186;DHT22;20067;48.764;9.176;2023-07-29T07:01:24;20.60;91.30
26186;DHT22;20067;48.764;9.176;2023-07-29T07:03:49;20.50;91.30
26186;DHT22;20067;48.764;9.176;2023-07-29T07:06:15;20.40;91.30
26186;DHT22;20067;48.764;9.176;2023-07-29T07:08:40;20.20;91.30
26186;DHT22;20067;48.764;9.176;2023-07-29T07:11:07;20.10;91.30
26186;DHT22;20067;48.764;9.176;2023-07-29T07:13:33;19.90;91.30
26186;DHT22;20067;48.764;9.176;2023-07-29T07:16:00;19.80;91.30
26186;DHT22;20067;48.764;9.176;2023-07-29T07:18:25;19.80;91.30
26186;DHT22;20067;48.764;9.176;2023-07-29T07:20:51;19.70;91.30
26186;DHT22;20067;48.764;9.176;2023-07-29T07:23:18;19.70;91.30
26186;DHT22;20067;48.764;9.176;2023-07-29T07:25:44;19.60;91.30
26186;DHT22;20067;48.764;9.176;2023-07-29T07:28:12;19.60;91.30
26186;DHT22;20067;48.764;9.176;2023-07-29T07:30:41;19.60;91.30
26186;DHT22;20067;48.764;9.176;2023-07-29T07:33:08;19.60;91.30
26186;DHT22;20067;48.764;9.176;2023-07-29T07:35:33;19.60;91.30
26186;DHT22;20067;48.764;9.176;2023-07-29T07:37:59;19.70;91.30
26186;DHT22;20067;48.764;9.176;2023-07-29T07:40:27;19.70;91.30
26186;DHT22;20067;48.764;9.176;2023-07-29T07:42:53;19.80;91.30
26186;DHT22;20067;48.764;9.176;2023-07-29T07:45:19;19.80;91.30
26186;DHT22;20067;48.764;9.176;2023-07-29T07:47:45;19.90;91.30
26186;DHT22;20067;48.764;9.176;2023-07-29T07:50:11;19.90;91.30
26186;DHT22;20067;48.764;9.176;2023-07-29T07:52:36;19.90;91.30
26186;DHT22;20067;48.764;9.176;2023-07-29T07:55:02;19.90;91.30
26186;DHT22;20067;48.764;9.176;2023-07-29T07:57:28;19.90;91.30
26186;DHT22;20067;48.764;9.176;2023-07-29T07:59:53;20.00;91.30
26186;DHT22;20067;48.764;9.176;2023-07-29T08:02:19;19.90;91.30
26186;DHT22;20067;48.764;9.176;2023-07-29T08:04:45;20.00;91.30
26186;DHT22;20067;48.764;9.176;2023-07-29T08:07:11;20.10;91.30
26186;DHT22;20067;48.764;9.176;2023-07-29T08:09:37;20.20;91.30
26186;DHT22;20067;48.764;9.176;2023-07-29T08:12:03;20.20;91.30
26186;DHT22;20067;48.764;9.176;2023-07-29T08:14:28;20.20;91.30
26186;DHT22;20067;48.764;9.176;2023-07-29T08:16:54;20.30;91.30
26186;DHT22;20067;48.764;9.176;2023-07-29T08:19:20;20.50;91.30
26186;DHT22;20067;48.764;9.176;2023-07-29T08:21:45;20.60;91.30
26186;DHT22;20067;48.764;9.176;2023-07-29T08:24:11;20.70;91.30
26186;DHT22;20067;48.764;9.176;2023-07-29T08:26:36;20.80;91.30
26186;DHT22;20067;48.764;9.176;2023-07-29T08:29:02;20.90;91.30
26186;DHT22;20067;48.764;9.176;2023-07-29T08:31:28;20.90;91.30
26186;DHT22;20067;48.764;9.176;2023-07-29T08:33:54;21.00;91.30
26186;DHT22;20067;48.764;9.176;2023-07-29T08:36:20;21.10;91.30
26186;DHT22;20067;48.764;9.176;2023-07-29T08:38:46;21.10;91.30
26186;DHT22;20067;48.764;9.176;2023-07-29T08:43:39;21.20;91.30
26186;DHT22;20067;48.764;9.176;2023-07-29T08:46:09;21.30;91.30
26186;DHT22;20067;48.764;9.176;2023-07-29T08:48:42;21.30;91.30
26186;DHT22;20067;48.764;9.176;2023-07-29T08:51:09;21.30;91.30
26186;DHT22;20067;48.764;9.176;2023-07-29T08:53:36;21.40;91.30
26186;DHT22;20067;48.764;9.176;2023-07-29T08:56:02;21.90;91.30
26186;DHT22;20067;48.764;9.176;2023-07-29T08:58:29;22.10;91.30
26186;DHT22;20067;48.764;9.176;2023-07-29T09:00:54;22.60;91.30
26186;DHT22;20067;48.764;9.176;2023-07-29T09:03:21;22.80;91.30
26186;DHT22;20067;48.764;9.176;2023-07-29T09:05:47;23.30;91.30
26186;DHT22;20067;48.764;9.176;2023-07-29T09:08:14;23.30;91.30
26186;DHT22;20067;48.764;9.176;2023-07-29T09:10:40;23.20;91.30
26186;DHT22;20067;48.764;9.176;2023-07-29T09:13:07;23.10;91.30
26186;DHT22;20067;48.764;9.176;2023-07-29T09:15:34;23.10;91.30
26186;DHT22;20067;48.764;9.176;2023-07-29T09:18:09;23.10;91.30
26186;DHT22;20067;48.764;9.176;2023-07-29T09:20:36;23.40;91.30
26186;DHT22;20067;48.764;9.176;2023-07-29T09:23:01;23.90;91.30
26186;DHT22;20067;48.764;9.176;2023-07-29T09:25:29;23.80;91.30
26186;DHT22;20067;48.764;9.176;2023-07-29T09:28:01;23.50;91.30
26186;DHT22;20067;48.764;9.176;2023-07-29T09:30:27;23.30;91.30
26186;DHT22;20067;48.764;9.176;2023-07-29T09:32:57;23.00;91.30
26186;DHT22;20067;48.764;9.176;2023-07-29T09:35:23;23.00;91.30
26186;DHT22;20067;48.764;9.176;2023-07-29T09:37:50;23.20;91.30
26186;DHT22;20067;48.764;9.176;2023-07-29T09:40:18;23.40;91.30
26186;DHT22;20067;48.764;9.176;2023-07-29T09:42:54;23.30;91.30
26186;DHT22;20067;48.764;9.176;2023-07-29T09:45:24;23.20;91.30
26186;DHT22;20067;48.764;9.176;2023-07-29T09:47:51;23.20;91.30
26186;DHT22;20067;48.764;9.176;2023-07-29T09:50:17;23.30;91.30
26186;DHT22;20067;48.764;9.176;2023-07-29T09:52:43;23.40;91.30
26186;DHT22;20067;48.764;9.176;2023-07-29T09:55:12;23.50;91.30
26186;DHT22;20067;48.764;9.176;2023-07-29T09:57:38;23.80;91.30
26186;DHT22;20067;48.764;9.176;2023-07-29T10:00:04;23.90;91.30
26186;DHT22;20067;48.764;9.176;2023-07-29T10:02:42;24.00;91.30
26186;DHT22;20067;48.764;9.176;2023-07-29T10:05:09;24.30;91.30
26186;DHT22;20067;48.764;9.176;2023-07-29T10:07:39;24.50;91.30
26186;DHT22;20067;48.764;9.176;2023-07-29T10:10:06;24.80;90.70
26186;DHT22;20067;48.764;9.176;2023-07-29T10:12:33;25.30;90.50
26186;DHT22;20067;48.764;9.176;2023-07-29T10:15:02;25.50;87.30
26186;DHT22;20067;48.764;9.176;2023-07-29T10:17:28;25.90;87.60
26186;DHT22;20067;48.764;9.176;2023-07-29T10:19:56;26.40;86.30
26186;DHT22;20067;48.764;9.176;2023-07-29T10:22:28;26.60;85.20
26186;DHT22;20067;48.764;9.176;2023-07-29T10:24:59;26.60;84.50
26186;DHT22;20067;48.764;9.176;2023-07-29T10:27:28;26.70;84.10
26186;DHT22;20067;48.764;9.176;2023-07-29T10:29:55;26.90;83.50
26186;DHT22;20067;48.764;9.176;2023-07-29T10:32:25;27.20;80.70
26186;DHT22;20067;48.764;9.176;2023-07-29T10:34:52;26.70;80.00
26186;DHT22;20067;48.764;9.176;2023-07-29T10:37:18;26.80;80.70
26186;DHT22;20067;48.764;9.176;2023-07-29T10:39:55;26.70;79.90
26186;DHT22;20067;48.764;9.176;2023-07-29T10:42:21;26.60;78.80
26186;DHT22;20067;48.764;9.176;2023-07-29T10:44:52;26.20;80.60
26186;DHT22;20067;48.764;9.176;2023-07-29T10:47:23;25.90;82.80
26186;DHT22;20067;48.764;9.176;2023-07-29T10:49:59;25.90;83.40
26186;DHT22;20067;48.764;9.176;2023-07-29T10:52:51;25.80;83.20
26186;DHT22;20067;48.764;9.176;2023-07-29T10:55:34;25.90;82.00
26186;DHT22;20067;48.764;9.176;2023-07-29T10:58:13;26.40;85.30
26186;DHT22;20067;48.764;9.176;2023-07-29T11:00:41;26.70;85.10
26186;DHT22;20067;48.764;9.176;2023-07-29T11:03:08;26.70;84.10
26186;DHT22;20067;48.764;9.176;2023-07-29T11:05:50;26.60;84.50
26186;DHT22;20067;48.764;9.176;2023-07-29T11:08:23;26.50;83.80
26186;DHT22;20067;48.764;9.176;2023-07-29T11:11:06;27.00;82.60
26186;DHT22;20067;48.764;9.176;2023-07-29T11:13:34;27.30;80.70
26186;DHT22;20067;48.764;9.176;2023-07-29T11:16:01;27.10;80.60
26186;DHT22;20067;48.764;9.176;2023-07-29T11:18:32;27.40;82.10
26186;DHT22;20067;48.764;9.176;2023-07-29T11:20:59;27.40;80.60
26186;DHT22;20067;48.764;9.176;2023-07-29T11:23:33;27.30;78.80
26186;DHT22;20067;48.764;9.176;2023-07-29T11:26:00;27.10;80.60
26186;DHT22;20067;48.764;9.176;2023-07-29T11:28:27;26.70;80.60
26186;DHT22;20067;48.764;9.176;2023-07-29T11:30:55;26.60;80.20
26186;DHT22;20067;48.764;9.176;2023-07-29T11:33:25;25.90;83.00
26186;DHT22;20067;48.764;9.176;2023-07-29T11:35:53;25.60;84.60
26186;DHT22;20067;48.764;9.176;2023-07-29T11:38:20;25.50;82.60
26186;DHT22;20067;48.764;9.176;2023-07-29T11:40:59;25.60;82.50
26186;DHT22;20067;48.764;9.176;2023-07-29T11:43:25;25.70;81.70
26186;DHT22;20067;48.764;9.176;2023-07-29T11:45:52;25.80;82.00
26186;DHT22;20067;48.764;9.176;2023-07-29T11:48:26;26.30;83.00
26186;DHT22;20067;48.764;9.176;2023-07-29T11:50:53;26.40;80.80
26186;DHT22;20067;48.764;9.176;2023-07-29T11:53:20;26.60;79.80
26186;DHT22;20067;48.764;9.176;2023-07-29T11:55:51;26.80;80.20
26186;DHT22;20067;48.764;9.176;2023-07-29T11:58:17;28.00;77.40
26186;DHT22;20067;48.764;9.176;2023-07-29T12:00:43;30.80;73.30
26186;DHT22;20067;48.764;9.176;2023-07-29T12:03:09;30.90;69.90
26186;DHT22;20067;48.764;9.176;2023-07-29T12:05:36;30.20;71.30
26186;DHT22;20067;48.764;9.176;2023-07-29T12:08:02;30.00;72.30
26186;DHT22;20067;48.764;9.176;2023-07-29T12:10:28;29.90;71.70
26186;DHT22;20067;48.764;9.176;2023-07-29T12:12:53;29.70;72.50
26186;DHT22;20067;48.764;9.176;2023-07-29T12:15:28;29.70;71.50
26186;DHT22;20067;48.764;9.176;2023-07-29T12:17:56;29.20;72.10
26186;DHT22;20067;48.764;9.176;2023-07-29T12:20:22;29.80;72.50
26186;DHT22;20067;48.764;9.176;2023-07-29T12:22:59;31.10;68.00
26186;DHT22;20067;48.764;9.176;2023-07-29T12:25:27;30.60;66.60
26186;DHT22;20067;48.764;9.176;2023-07-29T12:27:54;30.40;68.70
26186;DHT22;20067;48.764;9.176;2023-07-29T12:30:24;31.50;67.00
26186;DHT22;20067;48.764;9.176;2023-07-29T12:32:53;32.50;67.10
26186;DHT22;20067;48.764;9.176;2023-07-29T12:35:19;34.00;62.00
26186;DHT22;20067;48.764;9.176;2023-07-29T12:37:44;35.10;61.00
26186;DHT22;20067;48.764;9.176;2023-07-29T12:40:23;34.70;60.10
26186;DHT22;20067;48.764;9.176;2023-07-29T12:42:50;33.00;60.30
26186;DHT22;20067;48.764;9.176;2023-07-29T12:45:16;33.30;61.50
26186;DHT22;20067;48.764;9.176;2023-07-29T12:47:43;32.70;60.70
26186;DHT22;20067;48.764;9.176;2023-07-29T12:50:09;32.00;61.30
26186;DHT22;20067;48.764;9.176;2023-07-29T12:52:35;33.00;60.80
26186;DHT22;20067;48.764;9.176;2023-07-29T12:55:01;34.10;59.40
26186;DHT22;20067;48.764;9.176;2023-07-29T12:57:27;34.10;57.50
26186;DHT22;20067;48.764;9.176;2023-07-29T12:59:52;31.60;61.40
26186;DHT22;20067;48.764;9.176;2023-07-29T13:02:18;30.20;64.00
26186;DHT22;20067;48.764;9.176;2023-07-29T13:04:44;29.60;66.20
26186;DHT22;20067;48.764;9.176;2023-07-29T13:07:09;29.80;66.90
26186;DHT22;20067;48.764;9.176;2023-07-29T13:09:35;29.40;66.50
26186;DHT22;20067;48.764;9.176;2023-07-29T13:12:01;28.20;69.40
26186;DHT22;20067;48.764;9.176;2023-07-29T13:14:26;28.00;69.70
26186;DHT22;20067;48.764;9.176;2023-07-29T13:16:52;27.80;70.30
26186;DHT22;20067;48.764;9.176;2023-07-29T13:19:20;27.60;70.10
26186;DHT22;20067;48.764;9.176;2023-07-29T13:21:46;27.30;70.90
26186;DHT22;20067;48.764;9.176;2023-07-29T13:24:11;27.50;71.10
26186;DHT22;20067;48.764;9.176;2023-07-29T13:26:37;28.00;69.20
26186;DHT22;20067;48.764;9.176;2023-07-29T13:29:04;27.80;70.30
26186;DHT22;20067;48.764;9.176;2023-07-29T13:31:30;27.60;70.40
26186;DHT22;20067;48.764;9.176;2023-07-29T13:33:56;27.70;69.90
26186;DHT22;20067;48.764;9.176;2023-07-29T13:36:22;27.50;69.90
26186;DHT22;20067;48.764;9.176;2023-07-29T13:38:47;27.40;70.90
26186;DHT22;20067;48.764;9.176;2023-07-29T13:41:13;27.30;71.30
26186;DHT22;20067;48.764;9.176;2023-07-29T13:43:38;27.10;71.20
26186;DHT22;20067;48.764;9.176;2023-07-29T13:46:04;27.00;70.90
26186;DHT22;20067;48.764;9.176;2023-07-29T13:48:29;27.10;70.70
26186;DHT22;20067;48.764;9.176;2023-07-29T13:50:55;27.10;71.20
26186;DHT22;20067;48.764;9.176;2023-07-29T13:53:21;27.20;70.90
26186;DHT22;20067;48.764;9.176;2023-07-29T13:55:46;27.10;70.60
26186;DHT22;20067;48.764;9.176;2023-07-29T13:58:12;26.90;71.80
26186;DHT22;20067;48.764;9.176;2023-07-29T14:00:38;26.90;72.60
26186;DHT22;20067;48.764;9.176;2023-07-29T14:03:04;26.90;71.40
26186;DHT22;20067;48.764;9.176;2023-07-29T14:05:29;27.20;71.00
26186;DHT22;20067;48.764;9.176;2023-07-29T14:07:55;27.30;70.20
26186;DHT22;20067;48.764;9.176;2023-07-29T14:10:21;27.20;70.60
26186;DHT22;20067;48.764;9.176;2023-07-29T14:12:47;27.30;72.20
26186;DHT22;20067;48.764;9.176;2023-07-29T14:15:12;27.20;71.20
26186;DHT22;20067;48.764;9.176;2023-07-29T14:17:38;27.50;71.50
26186;DHT22;20067;48.764;9.176;2023-07-29T14:20:04;27.40;70.90
26186;DHT22;20067;48.764;9.176;2023-07-29T14:22:30;27.30;72.50
26186;DHT22;20067;48.764;9.176;2023-07-29T14:24:56;27.20;72.30
26186;DHT22;20067;48.764;9.176;2023-07-29T14:27:21;27.60;71.40
26186;DHT22;20067;48.764;9.176;2023-07-29T14:29:47;27.70;70.20
26186;DHT22;20067;48.764;9.176;2023-07-29T14:32:12;27.60;70.70
26186;DHT22;20067;48.764;9.176;2023-07-29T14:34:38;27.50;72.20
26186;DHT22;20067;48.764;9.176;2023-07-29T14:37:04;27.20;73.00
26186;DHT22;20067;48.764;9.176;2023-07-29T14:39:30;27.00;72.70
26186;DHT22;20067;48.764;9.176;2023-07-29T14:41:56;26.70;73.40
26186;DHT22;20067;48.764;9.176;2023-07-29T14:44:21;26.70;73.60
26186;DHT22;20067;48.764;9.176;2023-07-29T14:46:47;26.90;72.80
26186;DHT22;20067;48.764;9.176;2023-07-29T14:49:12;26.90;73.00
26186;DHT22;20067;48.764;9.176;2023-07-29T14:51:38;27.00;73.40
26186;DHT22;20067;48.764;9.176;2023-07-29T14:54:04;27.00;72.80
26186;DHT22;20067;48.764;9.176;2023-07-29T14:56:29;27.00;73.70
26186;DHT22;20067;48.764;9.176;2023-07-29T14:58:55;26.90;73.60
26186;DHT22;20067;48.764;9.176;2023-07-29T15:01:20;26.70;74.10
26186;DHT22;20067;48.764;9.176;2023-07-29T15:03:46;26.80;73.40
26186;DHT22;20067;48.764;9.176;2023-07-29T15:06:11;27.00;73.20
26186;DHT22;20067;48.764;9.176;2023-07-29T15:08:37;27.00;72.30
26186;DHT22;20067;48.764;9.176;2023-07-29T15:11:03;27.10;73.80
26186;DHT22;20067;48.764;9.176;2023-07-29T15:13:28;27.20;73.00
26186;DHT22;20067;48.764;9.176;2023-07-29T15:15:54;27.30;73.10
26186;DHT22;20067;48.764;9.176;2023-07-29T15:18:19;27.40;72.20
26186;DHT22;20067;48.764;9.176;2023-07-29T15:20:45;27.20;72.50
26186;DHT22;20067;48.764;9.176;2023-07-29T15:23:10;27.00;73.80
26186;DHT22;20067;48.764;9.176;2023-07-29T15:25:36;27.00;74.10
26186;DHT22;20067;48.764;9.176;2023-07-29T15:28:02;27.10;72.90
26186;DHT22;20067;48.764;9.176;2023-07-29T15:30:28;27.30;72.40
26186;DHT22;20067;48.764;9.176;2023-07-29T15:32:54;27.60;74.30
26186;DHT22;20067;48.764;9.176;2023-07-29T15:35:22;28.00;72.90
26186;DHT22;20067;48.764;9.176;2023-07-29T15:37:48;27.60;72.30
26186;DHT22;20067;48.764;9.176;2023-07-29T15:40:13;27.60;72.60
26186;DHT22;20067;48.764;9.176;2023-07-29T15:42:39;28.00;73.90
26186;DHT22;20067;48.764;9.176;2023-07-29T15:45:05;28.40;72.50